createdAt,value
2017-10-14T00:02:13.833Z,15.40
2017-10-14T00:04:48.841Z,15.10
2017-10-14T00:07:24.014Z,15.37
2017-10-14T00:09:59.053Z,13.40
2017-10-14T00:12:33.881Z,15.27
2017-10-14T00:15:08.949Z,15.50
2017-10-14T00:17:43.734Z,13.60
2017-10-14T00:20:18.766Z,14.50
2017-10-14T00:22:53.448Z,13.97
2017-10-14T00:25:28.521Z,13.50
2017-10-14T00:28:03.662Z,14.37
2017-10-14T00:30:38.529Z,13.00
2017-10-14T00:33:13.654Z,12.50
2017-10-14T00:35:48.425Z,13.30
2017-10-14T00:38:23.788Z,14.40
2017-10-14T00:40:58.605Z,13.73
2017-10-14T00:43:33.682Z,13.80
2017-10-14T00:46:08.353Z,14.17
2017-10-14T00:48:43.406Z,13.80
2017-10-14T00:51:17.928Z,13.23
2017-10-14T00:53:53.322Z,14.80
2017-10-14T00:56:28.262Z,15.20
2017-10-14T00:59:02.527Z,14.03
2017-10-14T01:01:37.121Z,13.07
2017-10-14T01:04:12.186Z,14.50
2017-10-14T01:06:47.605Z,14.30
2017-10-14T01:09:22.125Z,14.83
2017-10-14T01:11:56.912Z,13.17
2017-10-14T01:14:31.385Z,15.40
2017-10-14T01:17:05.946Z,14.60
2017-10-14T01:19:41.057Z,14.50
2017-10-14T01:22:15.878Z,15.23
2017-10-14T01:24:50.705Z,15.73
2017-10-14T01:27:25.618Z,13.33
2017-10-14T01:30:00.626Z,15.30
2017-10-14T01:32:35.233Z,15.70
2017-10-14T01:35:10.133Z,15.67
2017-10-14T01:37:45.025Z,15.57
2017-10-14T01:40:19.377Z,14.27
2017-10-14T01:42:54.454Z,15.83
2017-10-14T01:45:29.304Z,14.90
2017-10-14T01:48:04.188Z,15.10
2017-10-14T01:50:38.797Z,15.10
2017-10-14T01:53:12.897Z,15.57
2017-10-14T01:55:47.873Z,16.77
2017-10-14T01:58:22.753Z,15.90
2017-10-14T02:00:57.480Z,14.70
2017-10-14T02:03:32.137Z,16.67
2017-10-14T02:06:06.869Z,17.00
2017-10-14T02:08:41.963Z,16.43
2017-10-14T02:11:17.102Z,15.80
2017-10-14T02:13:51.937Z,17.63
2017-10-14T02:16:27.101Z,16.73
2017-10-14T02:19:01.703Z,16.93
2017-10-14T02:21:37.018Z,17.00
2017-10-14T02:24:12.081Z,16.50
2017-10-14T02:26:47.052Z,17.13
2017-10-14T02:29:22.016Z,16.27
2017-10-14T02:31:57.015Z,17.17
2017-10-14T02:34:31.945Z,16.60
2017-10-14T02:37:07.014Z,17.50
2017-10-14T02:39:42.130Z,17.77
2017-10-14T02:42:17.430Z,15.53
2017-10-14T02:44:52.513Z,16.10
2017-10-14T02:47:27.328Z,17.77
2017-10-14T02:50:02.146Z,17.80
2017-10-14T02:52:36.926Z,16.53
2017-10-14T02:55:11.758Z,17.37
2017-10-14T02:57:47.018Z,16.10
2017-10-14T03:00:21.961Z,15.13
2017-10-14T03:02:57.025Z,14.67
2017-10-14T03:05:31.706Z,14.97
2017-10-14T03:08:06.996Z,15.60
2017-10-14T03:10:42.124Z,14.80
2017-10-14T03:13:16.918Z,14.63
2017-10-14T03:15:52.077Z,13.87
2017-10-14T03:18:27.346Z,13.87
2017-10-14T03:21:02.257Z,15.67
2017-10-14T03:23:37.329Z,15.07
2017-10-14T03:26:12.517Z,13.47
2017-10-14T03:28:47.637Z,15.33
2017-10-14T03:31:22.626Z,16.17
2017-10-14T03:33:57.446Z,15.60
2017-10-14T03:36:32.358Z,14.30
2017-10-14T03:39:07.304Z,14.13
2017-10-14T03:41:41.989Z,15.87
2017-10-14T03:44:17.209Z,16.10
2017-10-14T03:46:52.022Z,15.63
2017-10-14T03:49:27.146Z,16.10
2017-10-14T03:52:01.993Z,16.57
2017-10-14T03:54:36.993Z,16.53
2017-10-14T03:57:11.833Z,16.63
2017-10-14T03:59:46.312Z,16.90
2017-10-14T04:02:21.549Z,17.20
2017-10-14T04:04:56.460Z,16.80
2017-10-14T04:07:31.400Z,17.27
2017-10-14T04:10:06.441Z,17.30
2017-10-14T04:12:41.530Z,17.20
2017-10-14T04:15:16.630Z,17.70
2017-10-14T04:17:51.436Z,17.13
2017-10-14T04:20:26.206Z,16.57
2017-10-14T04:23:01.257Z,16.97
2017-10-14T04:25:35.714Z,17.47
2017-10-14T04:28:10.268Z,17.57
2017-10-14T04:30:44.760Z,18.60
2017-10-14T04:33:20.082Z,16.30
2017-10-14T04:35:55.233Z,18.10
2017-10-14T04:38:30.565Z,18.20
2017-10-14T04:41:05.710Z,17.73
2017-10-14T04:43:40.437Z,17.60
2017-10-14T04:46:15.202Z,17.50
2017-10-14T04:48:49.957Z,19.63
2017-10-14T04:51:24.740Z,18.70
2017-10-14T04:53:59.562Z,19.00
2017-10-14T04:56:34.856Z,19.73
2017-10-14T04:59:09.389Z,20.57
2017-10-14T05:01:44.267Z,18.97
2017-10-14T05:04:19.648Z,18.23
2017-10-14T05:06:54.295Z,19.97
2017-10-14T05:09:29.373Z,20.10
2017-10-14T05:12:04.361Z,20.77
2017-10-14T05:14:39.756Z,20.33
2017-10-14T05:17:14.366Z,19.93
2017-10-14T05:19:48.898Z,21.17
2017-10-14T05:22:23.429Z,18.80
2017-10-14T05:24:58.527Z,20.13
2017-10-14T05:27:33.554Z,21.37
2017-10-14T05:30:08.832Z,21.10
2017-10-14T05:32:44.087Z,21.30
2017-10-14T05:35:19.221Z,20.97
2017-10-14T05:37:54.613Z,20.80
2017-10-14T05:40:29.181Z,21.60
2017-10-14T05:43:04.121Z,20.83
2017-10-14T05:45:39.255Z,20.87
2017-10-14T05:48:14.124Z,20.53
2017-10-14T05:50:48.986Z,21.77
2017-10-14T05:53:24.015Z,20.73
2017-10-14T05:55:58.942Z,21.90
2017-10-14T05:58:34.289Z,22.47
2017-10-14T06:01:09.674Z,19.03
2017-10-14T06:03:44.097Z,19.90
2017-10-14T06:06:19.104Z,22.47
2017-10-14T06:08:54.328Z,20.97
2017-10-14T06:11:29.065Z,18.70
2017-10-14T06:14:04.129Z,21.57
2017-10-14T06:16:39.137Z,19.00
2017-10-14T06:19:14.269Z,17.60
2017-10-14T06:21:48.898Z,19.77
2017-10-14T06:24:23.877Z,19.43
2017-10-14T06:26:59.866Z,19.00
2017-10-14T06:29:34.661Z,17.77
2017-10-14T06:32:09.709Z,19.93
2017-10-14T06:34:45.009Z,19.00
2017-10-14T06:37:19.989Z,18.00
2017-10-14T06:39:55.120Z,19.30
2017-10-14T06:42:30.288Z,18.40
2017-10-14T06:45:05.401Z,18.50
2017-10-14T06:47:40.761Z,17.53
2017-10-14T06:50:15.696Z,18.30
2017-10-14T06:52:50.945Z,17.40
2017-10-14T06:55:25.677Z,15.83
2017-10-14T06:58:00.503Z,16.30
2017-10-14T07:00:35.397Z,15.90
2017-10-14T07:03:10.700Z,15.10
2017-10-14T07:05:45.876Z,14.80
2017-10-14T07:08:20.737Z,15.87
2017-10-14T07:10:55.988Z,14.97
2017-10-14T07:13:31.169Z,14.50
2017-10-14T07:16:06.437Z,13.93
2017-10-14T07:18:41.605Z,13.73
2017-10-14T07:21:16.493Z,13.20
2017-10-14T07:23:51.669Z,13.17
2017-10-14T07:26:26.704Z,12.13
2017-10-14T07:29:01.751Z,12.30
2017-10-14T07:31:36.554Z,10.80
2017-10-14T07:34:11.407Z,12.43
2017-10-14T07:36:46.640Z,11.93
2017-10-14T07:39:21.829Z,12.10
2017-10-14T07:41:56.652Z,11.10
2017-10-14T07:44:31.865Z,11.07
2017-10-14T07:47:06.985Z,11.53
2017-10-14T07:49:41.994Z,10.70
2017-10-14T07:52:16.986Z,10.63
2017-10-14T07:54:52.030Z,10.97
2017-10-14T07:57:27.301Z,10.40
2017-10-14T08:00:03.133Z,10.73
2017-10-14T08:02:38.194Z,10.10
2017-10-14T08:05:12.809Z,11.13
2017-10-14T08:07:47.665Z,10.80
2017-10-14T08:10:22.840Z,10.70
2017-10-14T08:12:57.752Z,9.60
2017-10-14T08:15:32.708Z,10.60
2017-10-14T08:18:07.121Z,9.50
2017-10-14T08:20:42.625Z,10.77
2017-10-14T08:23:17.185Z,10.50
2017-10-14T08:25:52.393Z,10.77
2017-10-14T08:28:27.453Z,10.17
2017-10-14T08:31:02.282Z,10.10
2017-10-14T08:33:37.521Z,9.67
2017-10-14T08:36:12.482Z,9.00
2017-10-14T08:38:47.904Z,9.50
2017-10-14T08:41:22.893Z,8.03
2017-10-14T08:43:58.121Z,8.40
2017-10-14T08:46:33.021Z,8.57
2017-10-14T08:49:08.344Z,9.20
2017-10-14T08:51:43.292Z,7.80
2017-10-14T08:54:18.443Z,8.40
2017-10-14T08:56:53.527Z,8.47
2017-10-14T08:59:28.573Z,7.80
2017-10-14T09:02:03.689Z,8.70
2017-10-14T09:04:38.731Z,7.93
2017-10-14T09:07:13.941Z,8.43
2017-10-14T09:09:48.965Z,7.80
2017-10-14T09:12:24.640Z,7.37
2017-10-14T09:14:59.108Z,7.60
2017-10-14T09:17:34.029Z,6.87
2017-10-14T09:20:08.789Z,7.87
2017-10-14T09:22:43.446Z,8.50
2017-10-14T09:25:18.245Z,7.70
2017-10-14T09:27:52.509Z,7.43
2017-10-14T09:30:27.397Z,6.50
2017-10-14T09:33:02.701Z,7.63
2017-10-14T09:35:37.701Z,6.77
2017-10-14T09:38:12.513Z,6.70
2017-10-14T09:40:47.446Z,5.73
2017-10-14T09:43:22.637Z,6.17
2017-10-14T09:45:57.946Z,6.20
2017-10-14T09:48:32.873Z,6.47
2017-10-14T09:51:07.824Z,6.07
2017-10-14T09:53:42.381Z,6.47
2017-10-14T09:56:17.205Z,5.97
2017-10-14T09:58:52.241Z,5.80
2017-10-14T10:01:27.266Z,5.20
2017-10-14T10:04:02.633Z,5.67
2017-10-14T10:06:37.965Z,5.07
2017-10-14T10:09:13.106Z,5.70
2017-10-14T10:11:47.721Z,5.80
2017-10-14T10:14:22.921Z,4.80
2017-10-14T10:16:57.629Z,5.70
2017-10-14T10:19:32.541Z,5.40
2017-10-14T10:22:07.933Z,5.17
2017-10-14T10:24:42.625Z,4.37
2017-10-14T10:27:17.749Z,4.27
2017-10-14T10:29:52.677Z,4.60
2017-10-14T10:32:27.325Z,4.03
2017-10-14T10:35:02.441Z,4.37
2017-10-14T10:37:37.689Z,4.10
2017-10-14T10:40:12.677Z,3.70
2017-10-14T10:42:47.492Z,3.90
2017-10-14T10:45:22.237Z,3.70
2017-10-14T10:47:57.177Z,3.47
2017-10-14T10:50:32.560Z,3.67
2017-10-14T10:53:07.609Z,4.10
2017-10-14T10:55:42.605Z,3.00
2017-10-14T10:58:17.568Z,2.93
2017-10-14T11:00:52.788Z,3.50
2017-10-14T11:03:28.392Z,3.27
2017-10-14T11:06:03.274Z,2.70
2017-10-14T11:08:38.564Z,2.60
2017-10-14T11:11:13.670Z,3.60
2017-10-14T11:13:49.077Z,3.07
2017-10-14T11:16:23.637Z,3.40
2017-10-14T11:18:58.870Z,2.83
2017-10-14T11:21:33.888Z,2.37
2017-10-14T11:24:08.725Z,2.50
2017-10-14T11:26:44.094Z,3.00
2017-10-14T11:29:19.117Z,2.70
2017-10-14T11:31:54.267Z,2.40
2017-10-14T11:34:29.118Z,2.67
2017-10-14T11:37:04.334Z,2.67
2017-10-14T11:39:39.558Z,2.53
2017-10-14T11:42:14.514Z,2.23
2017-10-14T11:44:49.353Z,2.63
2017-10-14T11:47:24.297Z,1.80
2017-10-14T11:49:59.513Z,1.87
2017-10-14T11:52:34.782Z,2.20
2017-10-14T11:55:09.702Z,2.20
2017-10-14T11:57:44.685Z,2.60
2017-10-14T12:00:19.653Z,2.37
2017-10-14T12:02:54.428Z,2.03
2017-10-14T12:05:29.561Z,1.97
2017-10-14T12:08:04.281Z,2.30
2017-10-14T12:10:39.286Z,2.53
2017-10-14T12:13:14.009Z,2.77
2017-10-14T12:15:48.916Z,2.40
2017-10-14T12:18:24.028Z,2.30
2017-10-14T12:20:58.720Z,2.63
2017-10-14T12:23:33.353Z,2.30
2017-10-14T12:26:08.389Z,2.40
2017-10-14T12:28:43.488Z,2.57
2017-10-14T12:31:18.369Z,2.90
2017-10-14T12:33:53.064Z,3.90
2017-10-14T12:36:28.180Z,3.53
2017-10-14T12:39:02.861Z,3.10
2017-10-14T12:41:38.257Z,2.60
2017-10-14T12:44:13.252Z,2.80
2017-10-14T12:46:48.361Z,3.03
2017-10-14T12:49:23.570Z,3.00
2017-10-14T12:51:58.925Z,3.50
2017-10-14T12:54:33.804Z,3.50
2017-10-14T12:57:08.897Z,3.03
2017-10-14T12:59:43.809Z,3.50
2017-10-14T13:02:18.370Z,3.73
2017-10-14T13:04:53.185Z,3.67
2017-10-14T13:07:27.898Z,3.50
2017-10-14T13:10:03.188Z,3.73
2017-10-14T13:12:38.300Z,3.20
2017-10-14T13:15:13.025Z,4.43
2017-10-14T13:17:50.816Z,4.20
2017-10-14T13:20:26.469Z,4.60
2017-10-14T13:23:01.525Z,3.80
2017-10-14T13:25:36.439Z,3.43
2017-10-14T13:28:11.182Z,3.40
2017-10-14T13:30:45.701Z,4.20
2017-10-14T13:33:20.610Z,3.20
2017-10-14T13:35:55.505Z,3.20
2017-10-14T13:38:30.461Z,3.50
2017-10-14T13:41:05.269Z,3.30
2017-10-14T13:43:40.277Z,3.30
2017-10-14T13:46:15.270Z,2.93
2017-10-14T13:48:50.377Z,3.07
2017-10-14T13:51:25.300Z,3.10
2017-10-14T13:54:00.181Z,3.80
2017-10-14T13:56:35.333Z,3.17
2017-10-14T13:59:10.646Z,3.20
2017-10-14T14:01:45.595Z,3.40
2017-10-14T14:04:20.398Z,3.60
2017-10-14T14:06:54.757Z,3.10
2017-10-14T14:09:29.453Z,3.70
2017-10-14T14:12:04.403Z,3.40
2017-10-14T14:14:39.414Z,3.00
2017-10-14T14:17:14.441Z,3.53
2017-10-14T14:19:48.261Z,3.43
2017-10-14T14:22:22.840Z,3.50
2017-10-14T14:24:57.881Z,3.10
2017-10-14T14:27:32.805Z,3.00
2017-10-14T14:30:07.977Z,2.53
2017-10-14T14:32:43.186Z,2.90
2017-10-14T14:35:17.809Z,3.17
2017-10-14T14:37:52.537Z,3.30
2017-10-14T14:40:27.170Z,2.90
2017-10-14T14:43:01.613Z,2.70
2017-10-14T14:45:36.714Z,2.33
2017-10-14T14:48:11.193Z,2.70
2017-10-14T14:50:46.441Z,3.20
2017-10-14T14:53:21.273Z,3.30
2017-10-14T14:55:55.978Z,3.50
2017-10-14T14:58:31.174Z,3.30
2017-10-14T15:01:06.214Z,3.10
2017-10-14T15:03:41.371Z,3.47
2017-10-14T15:06:16.425Z,3.20
2017-10-14T15:08:50.838Z,3.20
2017-10-14T15:11:26.225Z,2.80
2017-10-14T15:14:01.333Z,3.20
2017-10-14T15:16:36.275Z,3.20
2017-10-14T15:19:11.229Z,3.00
2017-10-14T15:21:46.037Z,3.50
2017-10-14T15:24:20.993Z,3.00
2017-10-14T15:26:55.897Z,4.00
2017-10-14T15:29:30.898Z,3.47
2017-10-14T15:32:06.325Z,3.17
2017-10-14T15:34:41.017Z,3.00
2017-10-14T15:37:15.833Z,3.27
2017-10-14T15:39:50.916Z,2.80
2017-10-14T15:42:25.489Z,3.27
2017-10-14T15:44:59.959Z,3.03
2017-10-14T15:47:35.277Z,2.97
2017-10-14T15:50:10.423Z,3.10
2017-10-14T15:52:45.405Z,3.20
2017-10-14T15:55:20.358Z,2.97
2017-10-14T15:57:55.296Z,3.20
2017-10-14T16:00:30.344Z,3.50
2017-10-14T16:03:05.019Z,2.83
2017-10-14T16:05:40.241Z,2.73
2017-10-14T16:08:15.502Z,2.80
2017-10-14T16:10:50.150Z,3.07
2017-10-14T16:13:25.562Z,3.67
2017-10-14T16:16:00.890Z,3.17
2017-10-14T16:18:35.467Z,2.70
2017-10-14T16:21:10.272Z,2.97
2017-10-14T16:23:45.649Z,2.97
2017-10-14T16:26:20.638Z,3.17
2017-10-14T16:28:55.620Z,3.00
2017-10-14T16:31:30.613Z,3.23
2017-10-14T16:34:05.064Z,2.93
2017-10-14T16:36:40.003Z,3.57
2017-10-14T16:39:15.275Z,3.33
2017-10-14T16:41:50.005Z,3.17
2017-10-14T16:44:25.103Z,3.60
2017-10-14T16:47:00.484Z,3.30
2017-10-14T16:49:35.118Z,3.43
2017-10-14T16:52:09.866Z,3.40
2017-10-14T16:54:45.017Z,3.60
2017-10-14T16:57:20.181Z,4.23
2017-10-14T16:59:54.721Z,3.80
2017-10-14T17:02:29.590Z,3.73
2017-10-14T17:05:04.613Z,4.50
2017-10-14T17:07:39.453Z,7.53
2017-10-14T17:10:14.240Z,6.60
2017-10-14T17:12:49.361Z,12.67
2017-10-14T17:15:24.593Z,8.70
2017-10-14T17:17:59.042Z,10.70
2017-10-14T17:20:34.313Z,8.07
2017-10-14T17:23:09.073Z,4.37
2017-10-14T17:25:43.760Z,4.50
2017-10-14T17:28:18.785Z,4.20
2017-10-14T17:30:53.217Z,7.20
2017-10-14T17:33:28.569Z,4.50
2017-10-14T17:36:03.381Z,3.80
2017-10-14T17:38:38.177Z,4.57
2017-10-14T17:41:13.445Z,4.70
2017-10-14T17:43:47.880Z,4.10
2017-10-14T17:46:22.901Z,4.70
2017-10-14T17:48:57.742Z,5.33
2017-10-14T17:51:32.857Z,4.87
2017-10-14T17:54:08.069Z,5.00
2017-10-14T17:56:42.857Z,5.23
2017-10-14T17:59:17.520Z,5.00
2017-10-14T18:01:52.692Z,4.57
2017-10-14T18:04:28.086Z,4.73
2017-10-14T18:07:02.622Z,6.20
2017-10-14T18:09:37.637Z,6.70
2017-10-14T18:12:12.461Z,5.70
2017-10-14T18:14:47.638Z,5.80
2017-10-14T18:17:22.494Z,6.10
2017-10-14T18:19:57.502Z,6.03
2017-10-14T18:22:32.400Z,5.93
2017-10-14T18:25:07.209Z,5.70
2017-10-14T18:27:42.033Z,5.50
2017-10-14T18:30:16.865Z,6.30
2017-10-14T18:32:51.721Z,6.20
2017-10-14T18:35:26.634Z,6.00
2017-10-14T18:38:01.370Z,6.20
2017-10-14T18:40:35.857Z,6.10
2017-10-14T18:43:10.805Z,6.67
2017-10-14T18:45:45.565Z,7.00
2017-10-14T18:48:20.345Z,7.17
2017-10-14T18:50:55.121Z,6.47
2017-10-14T18:53:30.034Z,5.63
2017-10-14T18:56:04.877Z,6.93
2017-10-14T18:58:39.921Z,5.90
2017-10-14T19:01:15.010Z,5.80
2017-10-14T19:03:50.060Z,7.47
2017-10-14T19:06:24.705Z,5.90
2017-10-14T19:08:59.737Z,6.00
2017-10-14T19:11:34.688Z,6.27
2017-10-14T19:14:09.222Z,6.50
2017-10-14T19:16:44.300Z,7.17
2017-10-14T19:19:19.469Z,7.37
2017-10-14T19:21:54.317Z,7.33
2017-10-14T19:24:29.234Z,7.83
2017-10-14T19:27:03.700Z,8.90
2017-10-14T19:29:38.814Z,8.77
2017-10-14T19:32:13.783Z,8.43
2017-10-14T19:34:48.709Z,10.13
2017-10-14T19:37:23.945Z,10.07
2017-10-14T19:39:58.686Z,10.50
2017-10-14T19:42:33.610Z,9.67
2017-10-14T19:45:08.357Z,9.90
2017-10-14T19:47:42.837Z,10.10
2017-10-14T19:50:17.250Z,10.10
2017-10-14T19:52:52.302Z,10.07
2017-10-14T19:55:26.824Z,10.80
2017-10-14T19:58:01.253Z,11.50
2017-10-14T20:00:36.461Z,12.13
2017-10-14T20:03:11.814Z,12.83
2017-10-14T20:05:47.273Z,12.60
2017-10-14T20:08:22.521Z,13.57
2017-10-14T20:10:57.524Z,14.30
2017-10-14T20:13:32.322Z,13.50
2017-10-14T20:16:07.209Z,11.87
2017-10-14T20:18:42.269Z,11.43
2017-10-14T20:21:16.710Z,11.23
2017-10-14T20:23:51.825Z,12.50
2017-10-14T20:26:26.341Z,13.87
2017-10-14T20:29:01.725Z,15.17
2017-10-14T20:31:36.758Z,13.23
2017-10-14T20:34:11.820Z,12.30
2017-10-14T20:36:47.105Z,12.60
2017-10-14T20:39:22.109Z,12.97
2017-10-14T20:41:57.565Z,11.13
2017-10-14T20:44:32.801Z,12.00
2017-10-14T20:47:12.529Z,13.10
2017-10-14T20:49:47.918Z,13.00
2017-10-14T20:52:22.693Z,13.03
2017-10-14T20:54:57.958Z,12.53
2017-10-14T20:57:32.790Z,13.70
2017-10-14T21:00:07.523Z,13.73
2017-10-14T21:02:42.022Z,14.83
2017-10-14T21:05:17.340Z,14.40
2017-10-14T21:07:52.253Z,14.73
2017-10-14T21:10:27.237Z,14.77
2017-10-14T21:13:02.300Z,15.87
2017-10-14T21:15:36.938Z,14.40
2017-10-14T21:18:11.738Z,15.17
2017-10-14T21:20:46.893Z,14.00
2017-10-14T21:23:21.725Z,15.03
2017-10-14T21:25:56.649Z,16.30
2017-10-14T21:28:31.653Z,15.47
2017-10-14T21:31:06.806Z,15.40
2017-10-14T21:33:41.837Z,18.17
2017-10-14T21:36:16.501Z,17.43
2017-10-14T21:38:51.481Z,15.37
2017-10-14T21:41:26.641Z,18.00
2017-10-14T21:44:01.850Z,17.77
2017-10-14T21:46:37.124Z,15.57
2017-10-14T21:49:12.490Z,18.03
2017-10-14T21:51:47.710Z,17.13
2017-10-14T21:54:22.514Z,16.53
2017-10-14T21:56:57.750Z,16.40
2017-10-14T21:59:32.749Z,16.67
2017-10-14T22:02:07.822Z,16.20
2017-10-14T22:04:42.894Z,17.43
2017-10-14T22:07:17.873Z,16.50
2017-10-14T22:09:52.937Z,17.10
2017-10-14T22:12:27.621Z,17.50
2017-10-14T22:15:02.076Z,17.07
2017-10-14T22:17:37.096Z,17.70
2017-10-14T22:20:12.347Z,15.67
2017-10-14T22:22:47.172Z,14.73
2017-10-14T22:25:22.587Z,14.27
2017-10-14T22:27:57.824Z,16.20
2017-10-14T22:30:32.907Z,15.43
2017-10-14T22:33:07.659Z,13.80
2017-10-14T22:35:42.649Z,14.80
2017-10-14T22:38:17.113Z,14.50
2017-10-14T22:40:52.049Z,13.73
2017-10-14T22:43:28.874Z,14.80
2017-10-14T22:46:04.613Z,13.77
2017-10-14T22:48:40.841Z,13.87
2017-10-14T22:51:18.385Z,14.47
2017-10-14T22:53:58.598Z,16.00
2017-10-14T22:56:34.077Z,15.73
2017-10-14T22:59:08.704Z,17.10
2017-10-14T23:01:44.866Z,15.97
2017-10-14T23:04:19.273Z,16.40
2017-10-14T23:06:54.217Z,15.73
2017-10-14T23:09:29.130Z,15.80
2017-10-14T23:12:04.102Z,15.07
2017-10-14T23:14:39.066Z,14.30
2017-10-14T23:17:14.138Z,14.40
2017-10-14T23:19:49.366Z,16.13
2017-10-14T23:22:24.422Z,15.27
2017-10-14T23:24:59.459Z,18.50
2017-10-14T23:27:34.612Z,17.27
2017-10-14T23:30:09.716Z,17.17
2017-10-14T23:32:44.357Z,14.40
2017-10-14T23:35:19.365Z,16.07
2017-10-14T23:37:54.573Z,17.63
2017-10-14T23:40:29.394Z,16.97
2017-10-14T23:43:04.397Z,16.30
2017-10-14T23:45:39.453Z,16.47
2017-10-14T23:48:14.741Z,19.17
2017-10-14T23:50:50.014Z,20.03
2017-10-14T23:53:24.980Z,16.27
2017-10-14T23:55:59.794Z,13.67
2017-10-14T23:58:34.838Z,13.27
